X  Luk Metar data        LGTS Thessaloniki Macedonia International
Temperatur
28°C Temperatur
21°C Duggpunkt
66% Fugtighed



Vind
3 M/S
7 MPT
11 KM/T
6 KNOB



290°
VNV
Nuværende forhold

Mostly Sunny Mest solrig
Tryk 1014 (hPa) - 29.94 (inHg)
Sigt 6 (mil) - 10 (km)
Lufthavn
Lufthavnskode LGTS

Lokation: Thessaloniki Macedonia International
Afstand: 85 (km)

Metar:
METAR LGTS 170820Z 29006KT 9999 FEW030 28/21 Q1014 NOSIG

Tid: 17-06-2024 11:20 EEST